createdAt,value
2019-05-01T00:04:52.419Z,66.7
2019-05-01T00:09:48.796Z,65.6
2019-05-01T00:14:45.218Z,66.9
2019-05-01T00:19:41.491Z,69
2019-05-01T00:24:37.942Z,68
2019-05-01T00:29:34.337Z,69
2019-05-01T00:34:30.577Z,73.1
2019-05-01T00:39:26.742Z,74.5
2019-05-01T00:44:22.462Z,74.6
2019-05-01T00:49:18.754Z,75.9
2019-05-01T00:54:15.119Z,70
2019-05-01T00:59:11.681Z,72.9
2019-05-01T01:04:08.142Z,68.9
2019-05-01T01:09:04.250Z,72.7
2019-05-01T01:14:00.708Z,76.9
2019-05-01T01:18:56.860Z,73.3
2019-05-01T01:23:53.205Z,76.2
2019-05-01T01:28:49.208Z,70.4
2019-05-01T01:33:45.497Z,74.5
2019-05-01T01:38:41.855Z,74.7
2019-05-01T01:43:38.171Z,77.6
2019-05-01T01:48:34.094Z,78.1
2019-05-01T01:53:30.372Z,80
2019-05-01T01:58:26.166Z,79.6
2019-05-01T02:03:22.484Z,79.3
2019-05-01T02:08:18.723Z,80.5
2019-05-01T02:13:15.012Z,81.5
2019-05-01T02:18:11.483Z,81.7
2019-05-01T02:23:07.892Z,82.2
2019-05-01T02:28:03.998Z,82.3
2019-05-01T02:32:59.982Z,82
2019-05-01T02:37:56.264Z,82.1
2019-05-01T02:42:52.732Z,81.5
2019-05-01T02:47:49.239Z,81.5
2019-05-01T02:52:45.563Z,80.7
2019-05-01T02:57:41.911Z,79.5
2019-05-01T03:02:38.437Z,79.2
2019-05-01T03:07:34.778Z,80.9
2019-05-01T03:12:31.222Z,81.5
2019-05-01T03:17:27.498Z,80.4
2019-05-01T03:22:23.628Z,79.2
2019-05-01T03:27:19.976Z,81.1
2019-05-01T03:32:18.947Z,83.5
2019-05-01T03:37:12.714Z,83.7
2019-05-01T03:42:09.240Z,82.8
2019-05-01T03:47:05.695Z,81.8
2019-05-01T03:52:01.792Z,83.6
2019-05-01T03:56:58.162Z,82.4
2019-05-01T04:01:54.341Z,80
2019-05-01T04:06:51.200Z,78.8
2019-05-01T04:11:47.807Z,78.7
2019-05-01T04:16:44.788Z,67.4
2019-05-01T04:21:43.248Z,69
2019-05-01T04:26:40.370Z,73.3
2019-05-01T04:31:36.513Z,67.5
2019-05-01T04:36:34.425Z,59.1
2019-05-01T04:41:33.037Z,57.5
2019-05-01T04:46:31.429Z,53.3
2019-05-01T04:51:29.771Z,54
2019-05-01T04:56:27.123Z,49.9
2019-05-01T05:01:24.742Z,48
2019-05-01T05:06:22.390Z,46.7
2019-05-01T05:11:20.111Z,43.6
2019-05-01T05:16:17.480Z,42.8
2019-05-01T05:21:14.169Z,42.3
2019-05-01T05:26:11.691Z,42.9
2019-05-01T05:31:09.332Z,40.6
2019-05-01T05:36:06.729Z,39.1
2019-05-01T05:41:04.307Z,39.3
2019-05-01T05:46:01.561Z,35.7
2019-05-01T05:50:58.525Z,36.9
2019-05-01T05:55:55.355Z,38.3
2019-05-01T06:00:52.228Z,34.2
2019-05-01T06:05:49.586Z,33.8
2019-05-01T06:10:47.104Z,35.9
2019-05-01T06:15:43.640Z,33.5
2019-05-01T06:20:41.133Z,31.6
2019-05-01T06:25:38.524Z,32.5
2019-05-01T06:30:35.917Z,27.4
2019-05-01T06:35:33.862Z,30
2019-05-01T06:40:30.000Z,29.1
2019-05-01T06:45:26.889Z,28.9
2019-05-01T06:50:23.970Z,28.3
2019-05-01T06:55:22.431Z,25.8
2019-05-01T07:00:18.572Z,28.1
2019-05-01T07:05:16.458Z,27.7
2019-05-01T07:10:12.317Z,28.1
2019-05-01T07:15:09.131Z,24.3
2019-05-01T07:20:06.643Z,24.5
2019-05-01T07:25:05.160Z,25.4
2019-05-01T07:30:00.874Z,26.8
2019-05-01T07:35:01.880Z,28.5
2019-05-01T07:39:53.339Z,36
2019-05-01T07:44:47.594Z,27.3
2019-05-01T07:49:47.750Z,21.9
2019-05-01T07:54:46.958Z,31.7
2019-05-01T07:59:39.616Z,30.7
2019-05-01T08:04:36.154Z,28.7
2019-05-01T08:09:31.575Z,30.9
2019-05-01T08:14:28.029Z,25.2
2019-05-01T08:19:26.404Z,23.9
2019-05-01T08:24:24.749Z,23.3
2019-05-01T08:29:22.603Z,26.6
2019-05-01T08:34:20.607Z,28.1
2019-05-01T08:39:16.388Z,22.8
2019-05-01T08:44:13.596Z,26.2
2019-05-01T08:49:11.285Z,26.6
2019-05-01T08:54:06.571Z,29.6
2019-05-01T08:59:02.320Z,32.6
2019-05-01T09:03:57.608Z,33.1
2019-05-01T09:08:53.344Z,28.2
2019-05-01T09:13:49.896Z,31.6
2019-05-01T09:18:46.975Z,23
2019-05-01T09:23:46.051Z,19.9
2019-05-01T09:28:43.728Z,25.8
2019-05-01T09:33:41.014Z,27.7
2019-05-01T09:38:37.499Z,23.2
2019-05-01T09:43:35.478Z,18.7
2019-05-01T09:48:33.448Z,22.4
2019-05-01T09:53:34.174Z,25.2
2019-05-01T09:58:26.924Z,22.6
2019-05-01T10:03:23.747Z,18.3
2019-05-01T10:08:20.938Z,20.1
2019-05-01T10:13:22.306Z,21.8
2019-05-01T10:18:15.279Z,21.7
2019-05-01T10:23:12.914Z,23.2
2019-05-01T10:28:12.359Z,27.7
2019-05-01T10:33:02.662Z,23.1
2019-05-01T10:37:59.426Z,25.2
2019-05-01T10:42:55.620Z,29
2019-05-01T10:47:51.824Z,30.8
2019-05-01T10:52:47.295Z,30.8
2019-05-01T10:57:43.616Z,30.5
2019-05-01T11:02:39.597Z,35
2019-05-01T11:07:35.539Z,33.4
2019-05-01T11:12:31.037Z,36.6
2019-05-01T11:17:26.942Z,35.7
2019-05-01T11:22:22.865Z,33.3
2019-05-01T11:27:19.620Z,35.3
2019-05-01T11:32:16.171Z,36.6
2019-05-01T11:37:12.555Z,36.1
2019-05-01T11:42:09.038Z,35.8
2019-05-01T11:47:05.580Z,38
2019-05-01T11:52:02.402Z,36.1
2019-05-01T11:56:59.373Z,34.3
2019-05-01T12:01:56.481Z,34.7
2019-05-01T12:06:53.740Z,32
2019-05-01T12:11:50.705Z,38.4
2019-05-01T12:16:47.557Z,33.9
2019-05-01T12:21:44.703Z,33.6
2019-05-01T12:26:41.560Z,34.4
2019-05-01T12:31:38.552Z,34.3
2019-05-01T12:36:36.192Z,34.4
2019-05-01T12:41:31.657Z,38.7
2019-05-01T12:46:28.194Z,36.2
2019-05-01T12:51:24.690Z,35.3
2019-05-01T12:56:21.208Z,38
2019-05-01T13:01:17.856Z,36.6
2019-05-01T13:06:14.593Z,36.7
2019-05-01T13:11:10.972Z,38.8
2019-05-01T13:16:07.597Z,39.1
2019-05-01T13:21:04.040Z,40.2
2019-05-01T13:26:00.613Z,36.8
2019-05-01T13:30:57.634Z,36.7
2019-05-01T13:35:54.559Z,34.6
2019-05-01T13:40:51.324Z,36.1
2019-05-01T13:45:48.095Z,37.4
2019-05-01T13:50:44.811Z,38
2019-05-01T13:55:41.432Z,38.7
2019-05-01T14:00:38.029Z,38.9
2019-05-01T14:05:34.416Z,36.4
2019-05-01T14:10:30.886Z,41.7
2019-05-01T14:15:27.675Z,41
2019-05-01T14:20:24.376Z,38.9
2019-05-01T14:25:21.248Z,37.6
2019-05-01T14:30:18.124Z,37.5
2019-05-01T14:35:14.124Z,40.2
2019-05-01T14:40:10.599Z,39.3
2019-05-01T14:45:07.088Z,42
2019-05-01T14:50:03.510Z,41.6
2019-05-01T14:55:00.201Z,39.3
2019-05-01T14:59:56.904Z,41
2019-05-01T15:04:53.415Z,40.6
2019-05-01T15:09:49.768Z,44.1
2019-05-01T15:14:46.507Z,45.8
2019-05-01T15:19:42.931Z,46.3
2019-05-01T15:24:39.481Z,48.4
2019-05-01T15:29:36.442Z,45.4
2019-05-01T15:34:33.184Z,42.9
2019-05-01T15:39:29.802Z,43.1
2019-05-01T15:44:26.271Z,44.2
2019-05-01T15:49:22.946Z,46.4
2019-05-01T15:54:19.525Z,48.3
2019-05-01T15:59:16.115Z,49.4
2019-05-01T16:04:12.763Z,49
2019-05-01T16:09:09.094Z,50.7
2019-05-01T16:14:05.581Z,50.3
2019-05-01T16:19:02.129Z,52
2019-05-01T16:23:58.660Z,51.9
2019-05-01T16:28:55.139Z,52.9
2019-05-01T16:33:51.275Z,52.8
2019-05-01T16:38:47.634Z,54.5
2019-05-01T16:43:43.880Z,52.4
2019-05-01T16:48:40.429Z,54.2
2019-05-01T16:53:36.722Z,54.4
2019-05-01T16:58:33.313Z,55
2019-05-01T17:03:29.684Z,58.5
2019-05-01T17:08:35.843Z,59.6
2019-05-01T17:13:22.500Z,63.4
2019-05-01T17:18:18.663Z,65.9
2019-05-01T17:23:15.151Z,69.7
2019-05-01T17:28:11.068Z,69.8
2019-05-01T17:33:07.531Z,71.7
2019-05-01T17:38:03.884Z,71.8
2019-05-01T17:43:00.295Z,71.8
2019-05-01T17:47:57.782Z,68.7
2019-05-01T17:52:53.394Z,68.6
2019-05-01T17:57:49.742Z,69.7
2019-05-01T18:02:46.227Z,69.6
2019-05-01T18:07:42.679Z,69
2019-05-01T18:12:39.244Z,68
2019-05-01T18:17:35.712Z,68.8
2019-05-01T18:22:36.948Z,69.6
2019-05-01T18:27:28.737Z,70
2019-05-01T18:32:25.115Z,70.9
2019-05-01T18:37:21.593Z,71.1
2019-05-01T18:42:18.177Z,71.7
2019-05-01T18:47:14.090Z,72.8
2019-05-01T18:52:10.712Z,72.9
2019-05-01T18:57:06.880Z,74
2019-05-01T19:02:03.407Z,73.3
2019-05-01T19:06:59.753Z,73.7
2019-05-01T19:11:56.130Z,75.4
2019-05-01T19:16:52.790Z,76.7
2019-05-01T19:21:49.259Z,75.1
2019-05-01T19:26:45.699Z,76.2
2019-05-01T19:31:42.212Z,74.8
2019-05-01T19:36:40.247Z,74.5
2019-05-01T19:41:34.853Z,75.6
2019-05-01T19:46:31.024Z,75.8
2019-05-01T19:51:27.753Z,76.7
2019-05-01T19:56:24.047Z,76.3
2019-05-01T20:01:20.666Z,77.3
2019-05-01T20:06:17.028Z,77.3
2019-05-01T20:11:13.441Z,77.1
2019-05-01T20:16:10.021Z,77.2
2019-05-01T20:21:06.577Z,78.5
2019-05-01T20:26:02.856Z,79.4
2019-05-01T20:30:59.446Z,78.4
2019-05-01T20:35:55.716Z,79.6
2019-05-01T20:40:52.257Z,80.4
2019-05-01T20:45:49.308Z,81.7
2019-05-01T20:50:44.750Z,82.7
2019-05-01T20:55:41.016Z,83.6
2019-05-01T21:00:37.393Z,84.2
2019-05-01T21:05:33.781Z,84.3
2019-05-01T21:10:34.227Z,84.5
2019-05-01T21:15:26.776Z,85.1
2019-05-01T21:20:23.548Z,85.1
2019-05-01T21:25:18.583Z,85.3
2019-05-01T21:30:14.861Z,85.2
2019-05-01T21:35:10.972Z,84.8
2019-05-01T21:40:07.851Z,85
2019-05-01T21:45:04.509Z,84.9
2019-05-01T21:50:00.690Z,85.5
2019-05-01T21:54:57.167Z,85.6
2019-05-01T21:59:55.243Z,85.9
2019-05-01T22:04:49.945Z,85.2
2019-05-01T22:09:50.395Z,86
2019-05-01T22:14:43.207Z,85.3
2019-05-01T22:19:39.690Z,84.8
2019-05-01T22:24:36.082Z,86
2019-05-01T22:29:34.121Z,86.3
2019-05-01T22:34:29.224Z,86.4
2019-05-01T22:39:28.472Z,85.3
2019-05-01T22:44:22.061Z,85.4
2019-05-01T22:49:18.784Z,86.7
2019-05-01T22:54:15.022Z,86.9
2019-05-01T22:59:11.916Z,87.9
2019-05-01T23:04:11.989Z,88.5
2019-05-01T23:09:05.192Z,89.3
2019-05-01T23:14:01.525Z,89.7
2019-05-01T23:18:58.068Z,89.9
2019-05-01T23:23:56.690Z,90.2
2019-05-01T23:28:51.166Z,90.4
2019-05-01T23:33:50.528Z,90.7
2019-05-01T23:38:43.920Z,91
2019-05-01T23:43:39.909Z,91.1
2019-05-01T23:48:36.166Z,91
2019-05-01T23:53:32.847Z,90.9
2019-05-01T23:58:28.853Z,91.4
